Linton, North Dakota
Current Conditions -  °F | °C
As of 9:15 PM on Thursday 18 Dec 2014 (Local Time) from K7L2 Reporting Station
Overcast Overcast  
Wind Chill: 16°   Ceiling: 700
Heat Index: 27°   Visibility: 9mi
Dew Point: 27°   Wind: 13mph
Humidity: 100%   Direction: 200°SSW
Pressure: 30.03"   Gusts: NA
Location:  46.27°N, 100.23°W
Report Text: K7L2 190315Z AUTO 20011KT 9SM OVC007 M03/M03 A3003 RMK AO2
Loading
Personal Weather Stations






























Interactive Weather Map New forecast layout! Learn more

10-Day Weather Forecast

Advertisements
Track Severe Weather on mobile